sensor_id;sensor_type;location;lat;lon;timestamp;P1;durP1;ratioP1;P2;durP2;ratioP2
12145;SDS011;6136;47.032;15.398;2022-08-19T00:02:19;4.15;;;2.63;;
12145;SDS011;6136;47.032;15.398;2022-08-19T00:04:48;9.30;;;2.38;;
12145;SDS011;6136;47.032;15.398;2022-08-19T00:07:19;4.70;;;2.33;;
12145;SDS011;6136;47.032;15.398;2022-08-19T00:09:47;5.38;;;2.15;;
12145;SDS011;6136;47.032;15.398;2022-08-19T00:12:16;8.63;;;2.80;;
12145;SDS011;6136;47.032;15.398;2022-08-19T00:14:45;6.10;;;2.65;;
12145;SDS011;6136;47.032;15.398;2022-08-19T00:17:13;6.47;;;2.10;;
12145;SDS011;6136;47.032;15.398;2022-08-19T00:19:41;3.22;;;1.88;;
12145;SDS011;6136;47.032;15.398;2022-08-19T00:22:09;5.70;;;2.60;;
12145;SDS011;6136;47.032;15.398;2022-08-19T00:24:37;3.55;;;2.42;;
12145;SDS011;6136;47.032;15.398;2022-08-19T00:27:07;5.90;;;2.40;;
12145;SDS011;6136;47.032;15.398;2022-08-19T00:29:53;3.65;;;2.08;;
12145;SDS011;6136;47.032;15.398;2022-08-19T00:32:21;5.18;;;2.67;;
12145;SDS011;6136;47.032;15.398;2022-08-19T00:34:49;5.07;;;2.63;;
12145;SDS011;6136;47.032;15.398;2022-08-19T00:37:19;5.85;;;2.22;;
12145;SDS011;6136;47.032;15.398;2022-08-19T00:39:49;6.37;;;2.60;;
12145;SDS011;6136;47.032;15.398;2022-08-19T00:42:19;4.28;;;2.38;;
12145;SDS011;6136;47.032;15.398;2022-08-19T00:44:48;2.33;;;1.93;;
12145;SDS011;6136;47.032;15.398;2022-08-19T00:47:18;4.47;;;2.60;;
12145;SDS011;6136;47.032;15.398;2022-08-19T00:49:47;6.23;;;2.50;;
12145;SDS011;6136;47.032;15.398;2022-08-19T00:52:20;4.23;;;2.30;;
12145;SDS011;6136;47.032;15.398;2022-08-19T00:54:51;5.73;;;2.17;;
12145;SDS011;6136;47.032;15.398;2022-08-19T00:57:22;5.13;;;2.40;;
12145;SDS011;6136;47.032;15.398;2022-08-19T00:59:54;4.07;;;2.53;;
12145;SDS011;6136;47.032;15.398;2022-08-19T01:02:29;3.40;;;2.30;;
12145;SDS011;6136;47.032;15.398;2022-08-19T01:05:00;8.37;;;2.33;;
12145;SDS011;6136;47.032;15.398;2022-08-19T01:07:30;7.37;;;2.50;;
12145;SDS011;6136;47.032;15.398;2022-08-19T01:10:01;4.77;;;2.73;;
12145;SDS011;6136;47.032;15.398;2022-08-19T01:12:31;6.47;;;2.37;;
12145;SDS011;6136;47.032;15.398;2022-08-19T01:15:00;3.30;;;2.10;;
12145;SDS011;6136;47.032;15.398;2022-08-19T01:17:30;6.10;;;2.53;;
12145;SDS011;6136;47.032;15.398;2022-08-19T01:19:58;3.03;;;2.00;;
12145;SDS011;6136;47.032;15.398;2022-08-19T01:22:28;5.80;;;2.70;;
12145;SDS011;6136;47.032;15.398;2022-08-19T01:25:00;6.73;;;2.30;;
12145;SDS011;6136;47.032;15.398;2022-08-19T01:27:36;10.20;;;3.00;;
12145;SDS011;6136;47.032;15.398;2022-08-19T01:30:09;3.97;;;2.30;;
12145;SDS011;6136;47.032;15.398;2022-08-19T01:32:40;4.33;;;2.37;;
12145;SDS011;6136;47.032;15.398;2022-08-19T01:35:10;5.23;;;2.60;;
12145;SDS011;6136;47.032;15.398;2022-08-19T01:37:44;3.83;;;2.30;;
12145;SDS011;6136;47.032;15.398;2022-08-19T01:40:15;6.60;;;2.60;;
12145;SDS011;6136;47.032;15.398;2022-08-19T01:42:46;3.90;;;2.53;;
12145;SDS011;6136;47.032;15.398;2022-08-19T01:45:15;5.13;;;2.40;;
12145;SDS011;6136;47.032;15.398;2022-08-19T01:47:43;5.07;;;2.87;;
12145;SDS011;6136;47.032;15.398;2022-08-19T01:50:21;3.70;;;2.40;;
12145;SDS011;6136;47.032;15.398;2022-08-19T01:52:50;6.23;;;2.60;;
12145;SDS011;6136;47.032;15.398;2022-08-19T01:55:24;1.90;;;1.80;;
12145;SDS011;6136;47.032;15.398;2022-08-19T01:57:53;3.40;;;2.50;;
12145;SDS011;6136;47.032;15.398;2022-08-19T02:00:29;6.60;;;2.50;;
12145;SDS011;6136;47.032;15.398;2022-08-19T02:02:59;4.57;;;2.93;;
12145;SDS011;6136;47.032;15.398;2022-08-19T02:05:27;4.60;;;2.57;;
12145;SDS011;6136;47.032;15.398;2022-08-19T02:07:56;5.87;;;3.13;;
12145;SDS011;6136;47.032;15.398;2022-08-19T02:10:25;5.77;;;2.80;;
12145;SDS011;6136;47.032;15.398;2022-08-19T02:12:53;7.03;;;2.80;;
12145;SDS011;6136;47.032;15.398;2022-08-19T02:15:22;5.23;;;2.80;;
12145;SDS011;6136;47.032;15.398;2022-08-19T02:17:51;3.70;;;2.93;;
12145;SDS011;6136;47.032;15.398;2022-08-19T02:20:19;5.97;;;2.97;;
12145;SDS011;6136;47.032;15.398;2022-08-19T02:22:48;3.43;;;2.70;;
12145;SDS011;6136;47.032;15.398;2022-08-19T02:25:17;2.43;;;2.23;;
12145;SDS011;6136;47.032;15.398;2022-08-19T02:27:45;6.73;;;2.90;;
12145;SDS011;6136;47.032;15.398;2022-08-19T02:30:14;6.70;;;2.90;;
12145;SDS011;6136;47.032;15.398;2022-08-19T02:32:43;2.53;;;2.23;;
12145;SDS011;6136;47.032;15.398;2022-08-19T02:35:12;5.70;;;3.03;;
12145;SDS011;6136;47.032;15.398;2022-08-19T02:37:41;6.93;;;3.07;;
12145;SDS011;6136;47.032;15.398;2022-08-19T02:40:29;3.97;;;2.70;;
12145;SDS011;6136;47.032;15.398;2022-08-19T02:43:00;5.47;;;3.03;;
12145;SDS011;6136;47.032;15.398;2022-08-19T02:45:31;3.87;;;2.53;;
12145;SDS011;6136;47.032;15.398;2022-08-19T02:47:59;6.73;;;3.10;;
12145;SDS011;6136;47.032;15.398;2022-08-19T02:50:27;3.73;;;2.40;;
12145;SDS011;6136;47.032;15.398;2022-08-19T02:52:55;7.87;;;3.23;;
12145;SDS011;6136;47.032;15.398;2022-08-19T02:55:23;5.00;;;2.67;;
12145;SDS011;6136;47.032;15.398;2022-08-19T02:57:53;4.40;;;2.83;;
12145;SDS011;6136;47.032;15.398;2022-08-19T03:00:21;4.87;;;2.47;;
12145;SDS011;6136;47.032;15.398;2022-08-19T03:02:50;8.03;;;2.30;;
12145;SDS011;6136;47.032;15.398;2022-08-19T03:05:18;2.90;;;2.60;;
12145;SDS011;6136;47.032;15.398;2022-08-19T03:07:50;4.93;;;2.57;;
12145;SDS011;6136;47.032;15.398;2022-08-19T03:10:18;3.47;;;2.40;;
12145;SDS011;6136;47.032;15.398;2022-08-19T03:12:46;5.73;;;2.87;;
12145;SDS011;6136;47.032;15.398;2022-08-19T03:15:16;6.37;;;3.20;;
12145;SDS011;6136;47.032;15.398;2022-08-19T03:17:44;4.50;;;2.70;;
12145;SDS011;6136;47.032;15.398;2022-08-19T03:20:12;8.23;;;3.00;;
12145;SDS011;6136;47.032;15.398;2022-08-19T03:22:40;9.60;;;3.13;;
12145;SDS011;6136;47.032;15.398;2022-08-19T03:25:08;5.53;;;2.87;;
12145;SDS011;6136;47.032;15.398;2022-08-19T03:27:38;4.40;;;2.90;;
12145;SDS011;6136;47.032;15.398;2022-08-19T03:30:06;8.73;;;3.40;;
12145;SDS011;6136;47.032;15.398;2022-08-19T03:32:38;6.60;;;4.13;;
12145;SDS011;6136;47.032;15.398;2022-08-19T03:35:10;8.20;;;4.43;;
12145;SDS011;6136;47.032;15.398;2022-08-19T03:37:38;8.37;;;4.00;;
12145;SDS011;6136;47.032;15.398;2022-08-19T03:40:07;4.23;;;2.90;;
12145;SDS011;6136;47.032;15.398;2022-08-19T03:42:39;7.90;;;3.13;;
12145;SDS011;6136;47.032;15.398;2022-08-19T03:45:14;4.57;;;2.90;;
12145;SDS011;6136;47.032;15.398;2022-08-19T03:47:44;5.60;;;3.17;;
12145;SDS011;6136;47.032;15.398;2022-08-19T03:50:12;8.13;;;2.83;;
12145;SDS011;6136;47.032;15.398;2022-08-19T03:52:41;5.90;;;3.30;;
12145;SDS011;6136;47.032;15.398;2022-08-19T03:55:10;8.00;;;3.63;;
12145;SDS011;6136;47.032;15.398;2022-08-19T03:57:38;6.10;;;3.63;;
12145;SDS011;6136;47.032;15.398;2022-08-19T04:00:07;7.10;;;3.93;;
12145;SDS011;6136;47.032;15.398;2022-08-19T04:02:39;7.20;;;3.83;;
12145;SDS011;6136;47.032;15.398;2022-08-19T04:05:09;5.63;;;3.63;;
12145;SDS011;6136;47.032;15.398;2022-08-19T04:07:39;5.83;;;3.23;;
12145;SDS011;6136;47.032;15.398;2022-08-19T04:10:07;5.97;;;3.33;;
12145;SDS011;6136;47.032;15.398;2022-08-19T04:12:36;4.47;;;3.23;;
12145;SDS011;6136;47.032;15.398;2022-08-19T04:15:05;5.33;;;3.50;;
12145;SDS011;6136;47.032;15.398;2022-08-19T04:17:34;4.90;;;2.93;;
12145;SDS011;6136;47.032;15.398;2022-08-19T04:20:03;5.10;;;2.60;;
12145;SDS011;6136;47.032;15.398;2022-08-19T04:22:33;3.80;;;2.53;;
12145;SDS011;6136;47.032;15.398;2022-08-19T04:25:02;4.40;;;2.05;;
12145;SDS011;6136;47.032;15.398;2022-08-19T04:27:30;3.35;;;1.60;;
12145;SDS011;6136;47.032;15.398;2022-08-19T04:29:59;1.58;;;1.48;;
12145;SDS011;6136;47.032;15.398;2022-08-19T04:32:27;3.55;;;1.40;;
12145;SDS011;6136;47.032;15.398;2022-08-19T04:34:58;2.63;;;1.40;;
12145;SDS011;6136;47.032;15.398;2022-08-19T04:37:44;5.20;;;1.70;;
12145;SDS011;6136;47.032;15.398;2022-08-19T04:40:12;1.50;;;1.40;;
12145;SDS011;6136;47.032;15.398;2022-08-19T04:42:58;2.45;;;1.55;;
12145;SDS011;6136;47.032;15.398;2022-08-19T04:45:27;2.00;;;1.52;;
12145;SDS011;6136;47.032;15.398;2022-08-19T04:48:04;1.75;;;1.30;;
12145;SDS011;6136;47.032;15.398;2022-08-19T04:50:45;2.20;;;1.65;;
12145;SDS011;6136;47.032;15.398;2022-08-19T04:53:14;2.58;;;1.42;;
12145;SDS011;6136;47.032;15.398;2022-08-19T04:55:42;3.72;;;1.95;;
12145;SDS011;6136;47.032;15.398;2022-08-19T04:58:11;3.53;;;1.70;;
12145;SDS011;6136;47.032;15.398;2022-08-19T05:00:39;2.05;;;1.52;;
12145;SDS011;6136;47.032;15.398;2022-08-19T05:03:07;5.13;;;1.80;;
12145;SDS011;6136;47.032;15.398;2022-08-19T05:05:38;2.47;;;1.70;;
12145;SDS011;6136;47.032;15.398;2022-08-19T05:08:10;2.95;;;1.35;;
12145;SDS011;6136;47.032;15.398;2022-08-19T05:10:39;2.47;;;1.75;;
12145;SDS011;6136;47.032;15.398;2022-08-19T05:13:08;2.95;;;1.90;;
12145;SDS011;6136;47.032;15.398;2022-08-19T05:15:37;6.03;;;2.28;;
12145;SDS011;6136;47.032;15.398;2022-08-19T05:18:05;6.03;;;2.05;;
12145;SDS011;6136;47.032;15.398;2022-08-19T05:20:50;1.60;;;1.50;;
12145;SDS011;6136;47.032;15.398;2022-08-19T05:23:36;3.22;;;1.98;;
12145;SDS011;6136;47.032;15.398;2022-08-19T05:26:05;2.58;;;1.77;;
12145;SDS011;6136;47.032;15.398;2022-08-19T05:28:35;2.33;;;1.58;;
12145;SDS011;6136;47.032;15.398;2022-08-19T05:31:03;1.98;;;1.80;;
12145;SDS011;6136;47.032;15.398;2022-08-19T05:33:32;2.83;;;1.67;;
12145;SDS011;6136;47.032;15.398;2022-08-19T05:36:00;2.72;;;1.80;;
12145;SDS011;6136;47.032;15.398;2022-08-19T05:38:29;3.15;;;1.52;;
12145;SDS011;6136;47.032;15.398;2022-08-19T05:40:58;2.60;;;1.95;;
12145;SDS011;6136;47.032;15.398;2022-08-19T05:43:27;3.30;;;2.17;;
12145;SDS011;6136;47.032;15.398;2022-08-19T05:45:55;2.33;;;1.40;;
12145;SDS011;6136;47.032;15.398;2022-08-19T05:48:23;4.72;;;1.83;;
12145;SDS011;6136;47.032;15.398;2022-08-19T05:50:52;7.35;;;2.35;;
12145;SDS011;6136;47.032;15.398;2022-08-19T05:53:21;4.95;;;2.17;;
12145;SDS011;6136;47.032;15.398;2022-08-19T05:55:49;3.47;;;2.38;;
12145;SDS011;6136;47.032;15.398;2022-08-19T05:58:17;3.22;;;2.47;;
12145;SDS011;6136;47.032;15.398;2022-08-19T06:00:46;3.35;;;2.20;;
12145;SDS011;6136;47.032;15.398;2022-08-19T06:03:14;7.70;;;2.92;;
12145;SDS011;6136;47.032;15.398;2022-08-19T06:05:42;19.40;;;2.53;;
12145;SDS011;6136;47.032;15.398;2022-08-19T06:08:16;3.50;;;2.63;;
12145;SDS011;6136;47.032;15.398;2022-08-19T06:10:45;4.43;;;2.47;;
12145;SDS011;6136;47.032;15.398;2022-08-19T06:13:13;4.03;;;3.05;;
12145;SDS011;6136;47.032;15.398;2022-08-19T06:15:41;5.07;;;2.78;;
12145;SDS011;6136;47.032;15.398;2022-08-19T06:18:12;6.40;;;3.17;;
12145;SDS011;6136;47.032;15.398;2022-08-19T06:20:41;3.85;;;2.53;;
12145;SDS011;6136;47.032;15.398;2022-08-19T06:23:21;7.30;;;2.90;;
12145;SDS011;6136;47.032;15.398;2022-08-19T06:25:49;4.30;;;2.72;;
12145;SDS011;6136;47.032;15.398;2022-08-19T06:28:17;7.57;;;3.25;;
12145;SDS011;6136;47.032;15.398;2022-08-19T06:30:46;5.90;;;2.40;;
12145;SDS011;6136;47.032;15.398;2022-08-19T06:33:15;3.65;;;2.42;;
12145;SDS011;6136;47.032;15.398;2022-08-19T06:35:44;4.50;;;2.38;;
12145;SDS011;6136;47.032;15.398;2022-08-19T06:38:12;5.53;;;2.45;;
12145;SDS011;6136;47.032;15.398;2022-08-19T06:40:40;2.92;;;1.95;;
12145;SDS011;6136;47.032;15.398;2022-08-19T06:43:13;4.28;;;2.42;;
12145;SDS011;6136;47.032;15.398;2022-08-19T06:45:42;2.28;;;1.98;;
12145;SDS011;6136;47.032;15.398;2022-08-19T06:48:10;4.40;;;2.65;;
12145;SDS011;6136;47.032;15.398;2022-08-19T06:50:40;2.42;;;2.17;;
12145;SDS011;6136;47.032;15.398;2022-08-19T06:53:08;4.30;;;2.65;;
12145;SDS011;6136;47.032;15.398;2022-08-19T06:55:36;4.30;;;2.35;;
12145;SDS011;6136;47.032;15.398;2022-08-19T06:58:04;4.47;;;2.20;;
12145;SDS011;6136;47.032;15.398;2022-08-19T07:00:32;5.03;;;2.38;;
12145;SDS011;6136;47.032;15.398;2022-08-19T07:03:01;3.65;;;1.63;;
12145;SDS011;6136;47.032;15.398;2022-08-19T07:05:37;2.55;;;1.83;;
12145;SDS011;6136;47.032;15.398;2022-08-19T07:08:10;3.70;;;1.85;;
12145;SDS011;6136;47.032;15.398;2022-08-19T07:10:42;2.85;;;2.00;;
12145;SDS011;6136;47.032;15.398;2022-08-19T07:13:11;3.15;;;2.05;;
12145;SDS011;6136;47.032;15.398;2022-08-19T07:15:39;3.47;;;1.85;;
12145;SDS011;6136;47.032;15.398;2022-08-19T07:18:08;2.22;;;1.58;;
12145;SDS011;6136;47.032;15.398;2022-08-19T07:20:37;5.22;;;2.08;;
12145;SDS011;6136;47.032;15.398;2022-08-19T07:23:07;4.05;;;1.67;;
12145;SDS011;6136;47.032;15.398;2022-08-19T07:25:35;3.25;;;2.00;;
12145;SDS011;6136;47.032;15.398;2022-08-19T07:28:04;1.88;;;1.50;;
12145;SDS011;6136;47.032;15.398;2022-08-19T07:30:35;1.83;;;1.45;;
12145;SDS011;6136;47.032;15.398;2022-08-19T07:33:04;1.77;;;1.67;;
12145;SDS011;6136;47.032;15.398;2022-08-19T07:35:32;1.50;;;1.40;;
12145;SDS011;6136;47.032;15.398;2022-08-19T07:38:00;5.45;;;1.98;;
12145;SDS011;6136;47.032;15.398;2022-08-19T07:40:31;2.58;;;1.52;;
12145;SDS011;6136;47.032;15.398;2022-08-19T07:42:59;2.40;;;1.40;;
12145;SDS011;6136;47.032;15.398;2022-08-19T07:45:27;1.85;;;1.40;;
12145;SDS011;6136;47.032;15.398;2022-08-19T07:47:58;2.80;;;1.48;;
12145;SDS011;6136;47.032;15.398;2022-08-19T07:50:27;2.65;;;1.17;;
12145;SDS011;6136;47.032;15.398;2022-08-19T07:52:55;1.50;;;1.40;;
12145;SDS011;6136;47.032;15.398;2022-08-19T07:55:24;1.00;;;1.00;;
12145;SDS011;6136;47.032;15.398;2022-08-19T07:58:09;1.55;;;1.15;;
12145;SDS011;6136;47.032;15.398;2022-08-19T08:00:38;4.50;;;1.40;;
12145;SDS011;6136;47.032;15.398;2022-08-19T08:03:07;2.97;;;1.40;;
12145;SDS011;6136;47.032;15.398;2022-08-19T08:05:36;1.00;;;1.00;;
12145;SDS011;6136;47.032;15.398;2022-08-19T08:08:21;1.50;;;1.10;;
12145;SDS011;6136;47.032;15.398;2022-08-19T08:11:10;2.30;;;1.20;;
12145;SDS011;6136;47.032;15.398;2022-08-19T08:13:42;1.92;;;1.42;;
12145;SDS011;6136;47.032;15.398;2022-08-19T08:16:10;2.08;;;1.40;;
12145;SDS011;6136;47.032;15.398;2022-08-19T08:18:39;2.00;;;1.33;;
12145;SDS011;6136;47.032;15.398;2022-08-19T08:21:08;1.27;;;1.05;;
12145;SDS011;6136;47.032;15.398;2022-08-19T08:23:36;2.17;;;1.40;;
12145;SDS011;6136;47.032;15.398;2022-08-19T08:26:05;1.60;;;1.20;;
12145;SDS011;6136;47.032;15.398;2022-08-19T08:28:33;4.10;;;1.80;;
12145;SDS011;6136;47.032;15.398;2022-08-19T08:31:02;3.90;;;1.30;;
12145;SDS011;6136;47.032;15.398;2022-08-19T08:33:35;1.80;;;1.70;;
12145;SDS011;6136;47.032;15.398;2022-08-19T08:36:04;1.73;;;1.20;;
12145;SDS011;6136;47.032;15.398;2022-08-19T08:38:32;2.53;;;1.60;;
12145;SDS011;6136;47.032;15.398;2022-08-19T08:41:07;3.17;;;1.58;;
12145;SDS011;6136;47.032;15.398;2022-08-19T08:43:46;3.78;;;1.40;;
12145;SDS011;6136;47.032;15.398;2022-08-19T08:46:19;1.40;;;1.30;;
12145;SDS011;6136;47.032;15.398;2022-08-19T08:48:58;2.53;;;1.30;;
12145;SDS011;6136;47.032;15.398;2022-08-19T08:51:34;1.05;;;1.02;;
12145;SDS011;6136;47.032;15.398;2022-08-19T08:54:12;2.50;;;1.33;;
12145;SDS011;6136;47.032;15.398;2022-08-19T08:56:44;1.35;;;1.25;;
12145;SDS011;6136;47.032;15.398;2022-08-19T08:59:15;1.70;;;1.25;;
12145;SDS011;6136;47.032;15.398;2022-08-19T09:01:49;1.02;;;1.02;;
12145;SDS011;6136;47.032;15.398;2022-08-19T09:04:17;2.83;;;1.40;;
12145;SDS011;6136;47.032;15.398;2022-08-19T09:06:48;3.63;;;1.40;;
12145;SDS011;6136;47.032;15.398;2022-08-19T09:09:24;1.95;;;1.30;;
12145;SDS011;6136;47.032;15.398;2022-08-19T09:12:00;2.50;;;1.42;;
12145;SDS011;6136;47.032;15.398;2022-08-19T09:14:39;2.85;;;1.30;;
12145;SDS011;6136;47.032;15.398;2022-08-19T09:17:18;1.85;;;1.63;;
12145;SDS011;6136;47.032;15.398;2022-08-19T09:19:58;1.42;;;1.30;;
12145;SDS011;6136;47.032;15.398;2022-08-19T09:22:31;1.30;;;1.20;;
12145;SDS011;6136;47.032;15.398;2022-08-19T09:24:59;3.17;;;1.20;;
12145;SDS011;6136;47.032;15.398;2022-08-19T09:27:28;1.83;;;1.60;;
12145;SDS011;6136;47.032;15.398;2022-08-19T09:30:08;4.40;;;1.35;;
12145;SDS011;6136;47.032;15.398;2022-08-19T09:32:41;1.45;;;1.35;;
12145;SDS011;6136;47.032;15.398;2022-08-19T09:35:09;1.45;;;1.35;;
12145;SDS011;6136;47.032;15.398;2022-08-19T09:37:39;2.45;;;1.77;;
12145;SDS011;6136;47.032;15.398;2022-08-19T09:40:07;1.88;;;1.30;;
12145;SDS011;6136;47.032;15.398;2022-08-19T09:42:37;2.50;;;1.67;;
12145;SDS011;6136;47.032;15.398;2022-08-19T09:45:16;2.60;;;1.52;;
12145;SDS011;6136;47.032;15.398;2022-08-19T09:47:49;2.35;;;1.48;;
12145;SDS011;6136;47.032;15.398;2022-08-19T09:50:20;2.08;;;1.88;;
12145;SDS011;6136;47.032;15.398;2022-08-19T09:52:50;2.55;;;1.77;;
12145;SDS011;6136;47.032;15.398;2022-08-19T09:55:22;3.97;;;1.75;;
12145;SDS011;6136;47.032;15.398;2022-08-19T09:57:57;3.40;;;1.92;;
12145;SDS011;6136;47.032;15.398;2022-08-19T10:00:26;2.28;;;1.85;;
12145;SDS011;6136;47.032;15.398;2022-08-19T10:02:56;2.53;;;2.00;;
12145;SDS011;6136;47.032;15.398;2022-08-19T10:05:25;3.53;;;2.08;;
12145;SDS011;6136;47.032;15.398;2022-08-19T10:08:10;1.80;;;1.70;;
12145;SDS011;6136;47.032;15.398;2022-08-19T10:10:40;2.25;;;1.33;;
12145;SDS011;6136;47.032;15.398;2022-08-19T10:13:12;2.25;;;1.75;;
12145;SDS011;6136;47.032;15.398;2022-08-19T10:15:42;1.65;;;1.55;;
12145;SDS011;6136;47.032;15.398;2022-08-19T10:18:15;2.45;;;1.60;;
12145;SDS011;6136;47.032;15.398;2022-08-19T10:20:44;3.47;;;1.80;;
12145;SDS011;6136;47.032;15.398;2022-08-19T10:23:17;2.55;;;1.90;;
12145;SDS011;6136;47.032;15.398;2022-08-19T10:25:45;3.28;;;2.00;;
12145;SDS011;6136;47.032;15.398;2022-08-19T10:28:14;3.25;;;2.08;;
12145;SDS011;6136;47.032;15.398;2022-08-19T10:30:44;2.63;;;2.15;;
12145;SDS011;6136;47.032;15.398;2022-08-19T10:33:14;5.05;;;2.03;;
12145;SDS011;6136;47.032;15.398;2022-08-19T10:36:03;6.85;;;2.40;;
12145;SDS011;6136;47.032;15.398;2022-08-19T10:38:33;5.40;;;2.28;;
12145;SDS011;6136;47.032;15.398;2022-08-19T10:41:09;4.38;;;2.92;;
12145;SDS011;6136;47.032;15.398;2022-08-19T10:43:38;2.85;;;1.73;;
12145;SDS011;6136;47.032;15.398;2022-08-19T10:46:07;3.63;;;2.00;;
12145;SDS011;6136;47.032;15.398;2022-08-19T10:48:41;6.68;;;2.20;;
12145;SDS011;6136;47.032;15.398;2022-08-19T10:51:10;2.33;;;1.80;;
12145;SDS011;6136;47.032;15.398;2022-08-19T10:53:56;2.33;;;2.00;;
12145;SDS011;6136;47.032;15.398;2022-08-19T10:56:25;2.70;;;1.90;;
12145;SDS011;6136;47.032;15.398;2022-08-19T10:59:11;3.90;;;2.40;;
12145;SDS011;6136;47.032;15.398;2022-08-19T11:01:40;6.47;;;2.95;;
12145;SDS011;6136;47.032;15.398;2022-08-19T11:04:11;3.15;;;2.00;;
12145;SDS011;6136;47.032;15.398;2022-08-19T11:06:44;4.35;;;2.17;;
12145;SDS011;6136;47.032;15.398;2022-08-19T11:09:14;2.60;;;2.10;;
12145;SDS011;6136;47.032;15.398;2022-08-19T11:11:43;6.53;;;2.40;;
12145;SDS011;6136;47.032;15.398;2022-08-19T11:14:12;4.38;;;2.78;;
12145;SDS011;6136;47.032;15.398;2022-08-19T11:16:41;8.27;;;3.45;;
12145;SDS011;6136;47.032;15.398;2022-08-19T11:19:11;5.20;;;2.95;;
12145;SDS011;6136;47.032;15.398;2022-08-19T11:21:43;6.03;;;2.83;;
12145;SDS011;6136;47.032;15.398;2022-08-19T11:24:14;5.03;;;2.78;;
12145;SDS011;6136;47.032;15.398;2022-08-19T11:26:44;6.47;;;3.03;;
12145;SDS011;6136;47.032;15.398;2022-08-19T11:29:12;3.53;;;2.97;;
12145;SDS011;6136;47.032;15.398;2022-08-19T11:31:42;5.68;;;3.22;;
12145;SDS011;6136;47.032;15.398;2022-08-19T11:34:13;4.65;;;2.53;;
12145;SDS011;6136;47.032;15.398;2022-08-19T11:36:45;6.00;;;2.65;;
12145;SDS011;6136;47.032;15.398;2022-08-19T11:39:15;7.05;;;2.95;;
12145;SDS011;6136;47.032;15.398;2022-08-19T11:41:45;5.28;;;2.70;;
12145;SDS011;6136;47.032;15.398;2022-08-19T11:44:13;5.18;;;2.80;;
12145;SDS011;6136;47.032;15.398;2022-08-19T11:46:43;5.95;;;2.67;;
12145;SDS011;6136;47.032;15.398;2022-08-19T11:49:15;3.17;;;2.75;;
12145;SDS011;6136;47.032;15.398;2022-08-19T11:51:45;4.15;;;2.42;;
12145;SDS011;6136;47.032;15.398;2022-08-19T11:54:16;5.25;;;2.70;;
12145;SDS011;6136;47.032;15.398;2022-08-19T11:56:44;3.17;;;2.38;;
12145;SDS011;6136;47.032;15.398;2022-08-19T11:59:15;6.50;;;2.83;;
12145;SDS011;6136;47.032;15.398;2022-08-19T12:01:43;4.97;;;2.45;;
12145;SDS011;6136;47.032;15.398;2022-08-19T12:04:11;3.78;;;2.60;;
12145;SDS011;6136;47.032;15.398;2022-08-19T12:06:41;5.18;;;2.50;;
12145;SDS011;6136;47.032;15.398;2022-08-19T12:09:09;4.85;;;2.50;;
12145;SDS011;6136;47.032;15.398;2022-08-19T12:11:38;3.83;;;2.30;;
12145;SDS011;6136;47.032;15.398;2022-08-19T12:14:08;3.92;;;2.10;;
12145;SDS011;6136;47.032;15.398;2022-08-19T12:16:40;6.18;;;2.67;;
12145;SDS011;6136;47.032;15.398;2022-08-19T12:19:16;3.97;;;2.30;;
12145;SDS011;6136;47.032;15.398;2022-08-19T12:21:49;4.55;;;2.53;;
12145;SDS011;6136;47.032;15.398;2022-08-19T12:24:18;4.28;;;2.53;;
12145;SDS011;6136;47.032;15.398;2022-08-19T12:26:49;6.38;;;2.47;;
12145;SDS011;6136;47.032;15.398;2022-08-19T12:29:19;8.05;;;2.58;;
12145;SDS011;6136;47.032;15.398;2022-08-19T12:31:49;4.00;;;2.20;;
12145;SDS011;6136;47.032;15.398;2022-08-19T12:34:17;6.15;;;2.08;;
12145;SDS011;6136;47.032;15.398;2022-08-19T12:36:48;3.10;;;2.25;;
12145;SDS011;6136;47.032;15.398;2022-08-19T12:39:16;5.13;;;2.20;;
12145;SDS011;6136;47.032;15.398;2022-08-19T12:41:45;6.68;;;2.58;;
12145;SDS011;6136;47.032;15.398;2022-08-19T12:44:20;2.60;;;2.38;;
12145;SDS011;6136;47.032;15.398;2022-08-19T12:46:55;6.50;;;2.25;;
12145;SDS011;6136;47.032;15.398;2022-08-19T12:49:23;4.32;;;1.90;;
12145;SDS011;6136;47.032;15.398;2022-08-19T12:52:13;5.45;;;1.80;;
12145;SDS011;6136;47.032;15.398;2022-08-19T12:54:48;2.67;;;2.00;;
12145;SDS011;6136;47.032;15.398;2022-08-19T12:57:20;2.55;;;2.10;;
12145;SDS011;6136;47.032;15.398;2022-08-19T12:59:57;6.38;;;2.60;;
12145;SDS011;6136;47.032;15.398;2022-08-19T13:02:25;6.10;;;2.10;;
12145;SDS011;6136;47.032;15.398;2022-08-19T13:04:53;5.93;;;2.80;;
12145;SDS011;6136;47.032;15.398;2022-08-19T13:07:23;4.43;;;2.17;;
12145;SDS011;6136;47.032;15.398;2022-08-19T13:09:51;6.32;;;2.13;;
12145;SDS011;6136;47.032;15.398;2022-08-19T13:12:19;5.97;;;1.80;;
12145;SDS011;6136;47.032;15.398;2022-08-19T13:14:50;3.58;;;2.35;;
12145;SDS011;6136;47.032;15.398;2022-08-19T13:17:18;5.55;;;2.13;;
12145;SDS011;6136;47.032;15.398;2022-08-19T13:19:46;6.55;;;2.28;;
12145;SDS011;6136;47.032;15.398;2022-08-19T13:22:15;4.15;;;2.13;;
12145;SDS011;6136;47.032;15.398;2022-08-19T13:24:44;5.57;;;2.40;;
12145;SDS011;6136;47.032;15.398;2022-08-19T13:27:13;6.43;;;2.42;;
12145;SDS011;6136;47.032;15.398;2022-08-19T13:29:41;4.85;;;2.45;;
12145;SDS011;6136;47.032;15.398;2022-08-19T13:32:26;2.97;;;2.15;;
12145;SDS011;6136;47.032;15.398;2022-08-19T13:35:14;6.22;;;2.67;;
12145;SDS011;6136;47.032;15.398;2022-08-19T13:37:42;5.18;;;2.08;;
12145;SDS011;6136;47.032;15.398;2022-08-19T13:40:14;6.15;;;2.17;;
12145;SDS011;6136;47.032;15.398;2022-08-19T13:42:47;8.38;;;2.38;;
12145;SDS011;6136;47.032;15.398;2022-08-19T13:45:17;7.32;;;2.30;;
12145;SDS011;6136;47.032;15.398;2022-08-19T13:47:47;7.95;;;2.47;;
12145;SDS011;6136;47.032;15.398;2022-08-19T13:50:21;3.50;;;2.17;;
12145;SDS011;6136;47.032;15.398;2022-08-19T13:52:52;6.40;;;2.00;;
12145;SDS011;6136;47.032;15.398;2022-08-19T13:55:23;7.88;;;2.80;;
12145;SDS011;6136;47.032;15.398;2022-08-19T13:57:51;5.03;;;2.13;;
12145;SDS011;6136;47.032;15.398;2022-08-19T14:00:20;5.68;;;2.65;;
12145;SDS011;6136;47.032;15.398;2022-08-19T14:02:50;5.68;;;2.42;;
12145;SDS011;6136;47.032;15.398;2022-08-19T14:05:20;5.57;;;2.10;;
12145;SDS011;6136;47.032;15.398;2022-08-19T14:07:49;2.53;;;2.08;;
12145;SDS011;6136;47.032;15.398;2022-08-19T14:10:18;3.22;;;2.10;;
12145;SDS011;6136;47.032;15.398;2022-08-19T14:12:48;6.00;;;2.22;;
12145;SDS011;6136;47.032;15.398;2022-08-19T14:15:16;4.13;;;2.20;;
12145;SDS011;6136;47.032;15.398;2022-08-19T14:17:44;5.43;;;2.55;;
12145;SDS011;6136;47.032;15.398;2022-08-19T14:20:15;3.45;;;2.35;;
12145;SDS011;6136;47.032;15.398;2022-08-19T14:22:44;2.50;;;2.30;;
12145;SDS011;6136;47.032;15.398;2022-08-19T14:25:17;6.93;;;2.42;;
12145;SDS011;6136;47.032;15.398;2022-08-19T14:27:48;2.72;;;2.05;;
12145;SDS011;6136;47.032;15.398;2022-08-19T14:30:19;4.35;;;2.38;;
12145;SDS011;6136;47.032;15.398;2022-08-19T14:32:49;3.95;;;2.40;;
12145;SDS011;6136;47.032;15.398;2022-08-19T14:35:17;4.10;;;2.65;;
12145;SDS011;6136;47.032;15.398;2022-08-19T14:37:46;4.28;;;2.42;;
12145;SDS011;6136;47.032;15.398;2022-08-19T14:40:16;5.15;;;2.60;;
12145;SDS011;6136;47.032;15.398;2022-08-19T14:42:49;5.07;;;2.28;;
12145;SDS011;6136;47.032;15.398;2022-08-19T14:45:17;5.50;;;2.47;;
12145;SDS011;6136;47.032;15.398;2022-08-19T14:47:46;2.67;;;2.10;;
12145;SDS011;6136;47.032;15.398;2022-08-19T14:50:14;6.47;;;2.17;;
12145;SDS011;6136;47.032;15.398;2022-08-19T14:52:43;4.30;;;2.60;;
12145;SDS011;6136;47.032;15.398;2022-08-19T14:55:13;3.42;;;2.20;;
12145;SDS011;6136;47.032;15.398;2022-08-19T14:57:42;6.55;;;2.65;;
12145;SDS011;6136;47.032;15.398;2022-08-19T15:00:12;5.10;;;2.30;;
12145;SDS011;6136;47.032;15.398;2022-08-19T15:02:41;4.05;;;2.10;;
12145;SDS011;6136;47.032;15.398;2022-08-19T15:05:10;6.35;;;2.50;;
12145;SDS011;6136;47.032;15.398;2022-08-19T15:07:39;4.72;;;2.40;;
12145;SDS011;6136;47.032;15.398;2022-08-19T15:10:08;10.00;;;3.10;;